Overview Statistics Trail Chart Weather Telemetry Raw packets
 

This is the latest recevied weather packets stored in our database for station/object R1ZCU-14. If no packets are shown the sender has not sent any weather packets the latest 10 day(s).

<< 29 30 31 32 33 34 35 >>
Time Temp. Humidity Pressure Rain* Wind** Luminosity Snow
1787907235 23.33° C 23% 1019.4 hPa - - - -
1787906634 18.89° C 32% 1019.6 hPa - - - -
1787906034 11.67° C 54% 1020.3 hPa - - - -
1787905433 11.11° C 58% 1020.2 hPa - - - -
1787904833 11.11° C 56% 1020.4 hPa - - - -
1787904232 12.78° C 48% 1020.4 hPa - - - -
1787903632 10.56° C 63% 1020.5 hPa - - - -
1787903031 10.56° C 66% 1020.5 hPa - - - -
1787902431 10° C 67% 1020.5 hPa - - - -
1787901830 10° C 69% 1020.7 hPa - - - -
1787901230 10° C 68% 1020.7 hPa - - - -
1787900629 10° C 71% 1020.8 hPa - - - -
1787900029 9.44° C 74% 1020.7 hPa - - - -
1787899428 9.44° C 74% 1020.8 hPa - - - -
1787898828 8.89° C 75% 1020.8 hPa - - - -
1787898227 8.89° C 74% 1020.8 hPa - - - -
1787897627 8.89° C 77% 1020.9 hPa - - - -
1787897026 8.89° C 79% 1020.9 hPa - - - -
1787896426 8.89° C 82% 1020.9 hPa - - - -
1787895825 8.33° C 84% 1021 hPa - - - -
1787895225 8.33° C 85% 1021.1 hPa - - - -
1787894624 8.33° C 83% 1021.1 hPa - - - -
1787894024 8.33° C 86% 1021.1 hPa - - - -
1787893423 7.78° C 89% 1021.3 hPa - - - -
1787892823 7.78° C 88% 1021.3 hPa - - - -

* Rain since midnight (hover to see other rain measurements)
** Current wind speed in m/s (hover to see current wind gust speed)